sensor_id;sensor_type;location;lat;lon;timestamp;P1;durP1;ratioP1;P2;durP2;ratioP2
35306;SDS011;21420;52.196;21.416;2023-01-09T00:01:13;48.80;;;32.30;;
35306;SDS011;21420;52.196;21.416;2023-01-09T00:03:45;50.00;;;34.20;;
35306;SDS011;21420;52.196;21.416;2023-01-09T00:06:12;53.10;;;34.20;;
35306;SDS011;21420;52.196;21.416;2023-01-09T00:08:39;51.90;;;34.50;;
35306;SDS011;21420;52.196;21.416;2023-01-09T00:11:09;48.00;;;33.70;;
35306;SDS011;21420;52.196;21.416;2023-01-09T00:13:36;49.60;;;33.70;;
35306;SDS011;21420;52.196;21.416;2023-01-09T00:16:04;49.10;;;33.40;;
35306;SDS011;21420;52.196;21.416;2023-01-09T00:18:33;51.80;;;34.30;;
35306;SDS011;21420;52.196;21.416;2023-01-09T00:21:01;50.70;;;32.00;;
35306;SDS011;21420;52.196;21.416;2023-01-09T00:23:30;51.90;;;34.40;;
35306;SDS011;21420;52.196;21.416;2023-01-09T00:26:07;51.00;;;34.00;;
35306;SDS011;21420;52.196;21.416;2023-01-09T00:28:38;49.80;;;33.50;;
35306;SDS011;21420;52.196;21.416;2023-01-09T00:31:06;50.90;;;33.30;;
35306;SDS011;21420;52.196;21.416;2023-01-09T00:33:36;46.20;;;32.80;;
35306;SDS011;21420;52.196;21.416;2023-01-09T00:36:06;45.70;;;32.50;;
35306;SDS011;21420;52.196;21.416;2023-01-09T00:38:34;47.40;;;33.10;;
35306;SDS011;21420;52.196;21.416;2023-01-09T00:41:03;45.40;;;32.20;;
35306;SDS011;21420;52.196;21.416;2023-01-09T00:43:34;47.80;;;32.00;;
35306;SDS011;21420;52.196;21.416;2023-01-09T00:46:05;52.10;;;34.50;;
35306;SDS011;21420;52.196;21.416;2023-01-09T00:48:34;43.80;;;32.70;;
35306;SDS011;21420;52.196;21.416;2023-01-09T00:51:04;46.30;;;32.90;;
35306;SDS011;21420;52.196;21.416;2023-01-09T00:53:35;44.40;;;31.80;;
35306;SDS011;21420;52.196;21.416;2023-01-09T00:56:07;45.70;;;32.40;;
35306;SDS011;21420;52.196;21.416;2023-01-09T00:58:38;45.00;;;31.70;;
35306;SDS011;21420;52.196;21.416;2023-01-09T01:01:05;43.50;;;30.30;;
35306;SDS011;21420;52.196;21.416;2023-01-09T01:03:32;47.30;;;31.60;;
35306;SDS011;21420;52.196;21.416;2023-01-09T01:05:59;46.80;;;31.80;;
35306;SDS011;21420;52.196;21.416;2023-01-09T01:08:44;48.80;;;31.80;;
35306;SDS011;21420;52.196;21.416;2023-01-09T01:11:12;47.80;;;32.00;;
35306;SDS011;21420;52.196;21.416;2023-01-09T01:13:39;44.70;;;30.10;;
35306;SDS011;21420;52.196;21.416;2023-01-09T01:16:07;49.90;;;33.00;;
35306;SDS011;21420;52.196;21.416;2023-01-09T01:18:37;48.10;;;32.00;;
35306;SDS011;21420;52.196;21.416;2023-01-09T01:21:06;46.60;;;30.90;;
35306;SDS011;21420;52.196;21.416;2023-01-09T01:23:37;42.10;;;31.00;;
35306;SDS011;21420;52.196;21.416;2023-01-09T01:26:13;46.90;;;31.40;;
35306;SDS011;21420;52.196;21.416;2023-01-09T01:28:42;44.90;;;31.90;;
35306;SDS011;21420;52.196;21.416;2023-01-09T01:31:14;46.10;;;32.90;;
35306;SDS011;21420;52.196;21.416;2023-01-09T01:33:42;43.50;;;31.50;;
35306;SDS011;21420;52.196;21.416;2023-01-09T01:36:09;47.40;;;31.90;;
35306;SDS011;21420;52.196;21.416;2023-01-09T01:38:36;42.00;;;30.10;;
35306;SDS011;21420;52.196;21.416;2023-01-09T01:41:03;48.00;;;31.60;;
35306;SDS011;21420;52.196;21.416;2023-01-09T01:43:51;47.50;;;32.30;;
35306;SDS011;21420;52.196;21.416;2023-01-09T01:46:21;45.50;;;31.20;;
35306;SDS011;21420;52.196;21.416;2023-01-09T01:48:50;47.80;;;33.00;;
35306;SDS011;21420;52.196;21.416;2023-01-09T01:51:20;53.00;;;35.50;;
35306;SDS011;21420;52.196;21.416;2023-01-09T01:53:50;53.30;;;34.80;;
35306;SDS011;21420;52.196;21.416;2023-01-09T01:56:32;48.30;;;32.50;;
35306;SDS011;21420;52.196;21.416;2023-01-09T02:01:43;45.10;;;29.50;;
35306;SDS011;21420;52.196;21.416;2023-01-09T02:04:14;42.10;;;29.30;;
35306;SDS011;21420;52.196;21.416;2023-01-09T02:06:41;42.40;;;28.40;;
35306;SDS011;21420;52.196;21.416;2023-01-09T02:09:11;39.80;;;29.20;;
35306;SDS011;21420;52.196;21.416;2023-01-09T02:11:44;45.50;;;30.20;;
35306;SDS011;21420;52.196;21.416;2023-01-09T02:14:12;42.10;;;28.00;;
35306;SDS011;21420;52.196;21.416;2023-01-09T02:25:22;44.10;;;29.80;;
35306;SDS011;21420;52.196;21.416;2023-01-09T02:28:14;48.30;;;32.90;;
35306;SDS011;21420;52.196;21.416;2023-01-09T02:30:49;52.30;;;34.40;;
35306;SDS011;21420;52.196;21.416;2023-01-09T02:33:43;47.20;;;31.30;;
35306;SDS011;21420;52.196;21.416;2023-01-09T02:41:58;43.00;;;29.20;;
35306;SDS011;21420;52.196;21.416;2023-01-09T02:44:32;42.60;;;29.40;;
35306;SDS011;21420;52.196;21.416;2023-01-09T02:47:37;45.20;;;30.10;;
35306;SDS011;21420;52.196;21.416;2023-01-09T02:49:55;46.80;;;29.80;;
35306;SDS011;21420;52.196;21.416;2023-01-09T03:06:46;40.50;;;27.90;;
35306;SDS011;21420;52.196;21.416;2023-01-09T03:09:22;41.90;;;28.20;;
35306;SDS011;21420;52.196;21.416;2023-01-09T03:11:55;44.80;;;27.70;;
35306;SDS011;21420;52.196;21.416;2023-01-09T03:14:27;40.40;;;27.30;;
35306;SDS011;21420;52.196;21.416;2023-01-09T03:17:05;41.50;;;28.10;;
35306;SDS011;21420;52.196;21.416;2023-01-09T03:19:37;46.50;;;31.90;;
35306;SDS011;21420;52.196;21.416;2023-01-09T03:22:04;47.50;;;30.40;;
35306;SDS011;21420;52.196;21.416;2023-01-09T03:24:33;43.00;;;28.60;;
35306;SDS011;21420;52.196;21.416;2023-01-09T03:27:00;40.30;;;28.10;;
35306;SDS011;21420;52.196;21.416;2023-01-09T03:29:28;40.50;;;28.20;;
35306;SDS011;21420;52.196;21.416;2023-01-09T03:31:55;43.30;;;28.40;;
35306;SDS011;21420;52.196;21.416;2023-01-09T03:34:22;43.30;;;27.70;;
35306;SDS011;21420;52.196;21.416;2023-01-09T03:36:49;42.00;;;26.60;;
35306;SDS011;21420;52.196;21.416;2023-01-09T03:39:17;40.20;;;27.40;;
35306;SDS011;21420;52.196;21.416;2023-01-09T03:41:44;40.30;;;27.90;;
35306;SDS011;21420;52.196;21.416;2023-01-09T03:44:10;39.10;;;27.20;;
35306;SDS011;21420;52.196;21.416;2023-01-09T03:46:37;39.00;;;26.00;;
35306;SDS011;21420;52.196;21.416;2023-01-09T03:49:04;41.10;;;26.40;;
35306;SDS011;21420;52.196;21.416;2023-01-09T03:51:31;39.50;;;27.40;;
35306;SDS011;21420;52.196;21.416;2023-01-09T03:53:58;38.00;;;26.50;;
35306;SDS011;21420;52.196;21.416;2023-01-09T03:56:25;40.10;;;26.80;;
35306;SDS011;21420;52.196;21.416;2023-01-09T03:58:52;41.80;;;27.10;;
35306;SDS011;21420;52.196;21.416;2023-01-09T04:01:19;39.60;;;27.00;;
35306;SDS011;21420;52.196;21.416;2023-01-09T04:03:46;37.20;;;27.00;;
35306;SDS011;21420;52.196;21.416;2023-01-09T04:06:13;35.70;;;25.80;;
35306;SDS011;21420;52.196;21.416;2023-01-09T04:08:40;39.30;;;27.60;;
35306;SDS011;21420;52.196;21.416;2023-01-09T04:11:07;37.80;;;26.80;;
35306;SDS011;21420;52.196;21.416;2023-01-09T04:13:35;36.50;;;25.70;;
35306;SDS011;21420;52.196;21.416;2023-01-09T04:16:02;39.40;;;26.50;;
35306;SDS011;21420;52.196;21.416;2023-01-09T04:18:29;35.60;;;25.70;;
35306;SDS011;21420;52.196;21.416;2023-01-09T04:20:56;38.90;;;27.60;;
35306;SDS011;21420;52.196;21.416;2023-01-09T04:23:24;39.30;;;27.60;;
35306;SDS011;21420;52.196;21.416;2023-01-09T04:25:50;43.20;;;29.90;;
35306;SDS011;21420;52.196;21.416;2023-01-09T04:28:18;49.90;;;30.30;;
35306;SDS011;21420;52.196;21.416;2023-01-09T04:30:48;46.30;;;28.80;;
35306;SDS011;21420;52.196;21.416;2023-01-09T04:33:15;42.90;;;28.30;;
35306;SDS011;21420;52.196;21.416;2023-01-09T04:35:41;38.80;;;25.90;;
35306;SDS011;21420;52.196;21.416;2023-01-09T04:38:08;39.40;;;26.70;;
35306;SDS011;21420;52.196;21.416;2023-01-09T04:40:35;38.70;;;25.60;;
35306;SDS011;21420;52.196;21.416;2023-01-09T04:43:02;36.10;;;26.00;;
35306;SDS011;21420;52.196;21.416;2023-01-09T04:45:29;37.90;;;25.70;;
35306;SDS011;21420;52.196;21.416;2023-01-09T04:48:00;37.00;;;25.20;;
35306;SDS011;21420;52.196;21.416;2023-01-09T04:50:26;37.20;;;25.40;;
35306;SDS011;21420;52.196;21.416;2023-01-09T04:52:55;34.30;;;24.20;;
35306;SDS011;21420;52.196;21.416;2023-01-09T04:55:23;36.30;;;25.70;;
35306;SDS011;21420;52.196;21.416;2023-01-09T04:57:50;31.50;;;23.30;;
35306;SDS011;21420;52.196;21.416;2023-01-09T05:00:17;36.20;;;25.80;;
35306;SDS011;21420;52.196;21.416;2023-01-09T05:02:44;36.00;;;24.80;;
35306;SDS011;21420;52.196;21.416;2023-01-09T05:05:11;34.10;;;24.50;;
35306;SDS011;21420;52.196;21.416;2023-01-09T05:07:38;36.10;;;24.30;;
35306;SDS011;21420;52.196;21.416;2023-01-09T05:10:06;35.10;;;25.20;;
35306;SDS011;21420;52.196;21.416;2023-01-09T05:12:35;36.50;;;24.60;;
35306;SDS011;21420;52.196;21.416;2023-01-09T05:15:03;39.20;;;25.30;;
35306;SDS011;21420;52.196;21.416;2023-01-09T05:17:31;36.80;;;25.20;;
35306;SDS011;21420;52.196;21.416;2023-01-09T05:19:58;32.20;;;23.40;;
35306;SDS011;21420;52.196;21.416;2023-01-09T05:22:26;33.70;;;24.20;;
35306;SDS011;21420;52.196;21.416;2023-01-09T05:24:54;36.50;;;23.20;;
35306;SDS011;21420;52.196;21.416;2023-01-09T05:27:21;33.80;;;22.80;;
35306;SDS011;21420;52.196;21.416;2023-01-09T05:29:48;35.90;;;23.50;;
35306;SDS011;21420;52.196;21.416;2023-01-09T05:32:15;34.10;;;24.50;;
35306;SDS011;21420;52.196;21.416;2023-01-09T05:34:42;32.40;;;24.00;;
35306;SDS011;21420;52.196;21.416;2023-01-09T05:37:08;32.60;;;22.90;;
35306;SDS011;21420;52.196;21.416;2023-01-09T05:39:35;36.40;;;25.00;;
35306;SDS011;21420;52.196;21.416;2023-01-09T05:42:02;32.30;;;23.50;;
35306;SDS011;21420;52.196;21.416;2023-01-09T05:44:29;34.50;;;23.50;;
35306;SDS011;21420;52.196;21.416;2023-01-09T05:46:56;32.70;;;23.50;;
35306;SDS011;21420;52.196;21.416;2023-01-09T05:49:23;32.90;;;22.60;;
35306;SDS011;21420;52.196;21.416;2023-01-09T05:51:50;31.10;;;22.10;;
35306;SDS011;21420;52.196;21.416;2023-01-09T05:54:17;35.80;;;23.20;;
35306;SDS011;21420;52.196;21.416;2023-01-09T05:56:44;28.20;;;21.60;;
35306;SDS011;21420;52.196;21.416;2023-01-09T05:59:11;29.80;;;21.50;;
35306;SDS011;21420;52.196;21.416;2023-01-09T06:01:38;30.50;;;21.60;;
35306;SDS011;21420;52.196;21.416;2023-01-09T06:04:04;30.70;;;22.20;;
35306;SDS011;21420;52.196;21.416;2023-01-09T06:06:31;32.50;;;22.30;;
35306;SDS011;21420;52.196;21.416;2023-01-09T06:08:58;33.30;;;22.40;;
35306;SDS011;21420;52.196;21.416;2023-01-09T06:11:25;30.70;;;21.20;;
35306;SDS011;21420;52.196;21.416;2023-01-09T06:13:52;34.30;;;21.40;;
35306;SDS011;21420;52.196;21.416;2023-01-09T06:16:19;34.20;;;22.40;;
35306;SDS011;21420;52.196;21.416;2023-01-09T06:18:46;30.20;;;21.10;;
35306;SDS011;21420;52.196;21.416;2023-01-09T06:21:13;30.00;;;21.60;;
35306;SDS011;21420;52.196;21.416;2023-01-09T06:23:40;31.50;;;21.50;;
35306;SDS011;21420;52.196;21.416;2023-01-09T06:26:07;30.50;;;20.30;;
35306;SDS011;21420;52.196;21.416;2023-01-09T06:28:34;29.60;;;22.10;;
35306;SDS011;21420;52.196;21.416;2023-01-09T06:31:01;28.70;;;20.40;;
35306;SDS011;21420;52.196;21.416;2023-01-09T06:33:28;33.40;;;21.40;;
35306;SDS011;21420;52.196;21.416;2023-01-09T06:35:55;31.80;;;23.10;;
35306;SDS011;21420;52.196;21.416;2023-01-09T06:38:22;32.10;;;21.40;;
35306;SDS011;21420;52.196;21.416;2023-01-09T06:40:49;25.60;;;19.80;;
35306;SDS011;21420;52.196;21.416;2023-01-09T06:43:16;27.70;;;20.60;;
35306;SDS011;21420;52.196;21.416;2023-01-09T06:45:43;30.90;;;21.30;;
35306;SDS011;21420;52.196;21.416;2023-01-09T06:48:10;32.10;;;22.40;;
35306;SDS011;21420;52.196;21.416;2023-01-09T06:50:38;31.50;;;21.90;;
35306;SDS011;21420;52.196;21.416;2023-01-09T06:53:05;31.90;;;22.50;;
35306;SDS011;21420;52.196;21.416;2023-01-09T06:55:32;28.50;;;21.50;;
35306;SDS011;21420;52.196;21.416;2023-01-09T06:57:59;30.00;;;20.40;;
35306;SDS011;21420;52.196;21.416;2023-01-09T07:00:26;32.80;;;22.40;;
35306;SDS011;21420;52.196;21.416;2023-01-09T07:02:53;27.50;;;20.30;;
35306;SDS011;21420;52.196;21.416;2023-01-09T07:05:20;28.30;;;20.50;;
35306;SDS011;21420;52.196;21.416;2023-01-09T07:07:47;31.60;;;22.00;;
35306;SDS011;21420;52.196;21.416;2023-01-09T07:10:14;28.00;;;19.80;;
35306;SDS011;21420;52.196;21.416;2023-01-09T07:12:41;30.90;;;21.10;;
35306;SDS011;21420;52.196;21.416;2023-01-09T07:15:08;28.30;;;19.50;;
35306;SDS011;21420;52.196;21.416;2023-01-09T07:17:36;26.40;;;20.40;;
35306;SDS011;21420;52.196;21.416;2023-01-09T07:20:04;29.60;;;20.20;;
35306;SDS011;21420;52.196;21.416;2023-01-09T07:22:31;26.70;;;20.60;;
35306;SDS011;21420;52.196;21.416;2023-01-09T07:24:58;27.70;;;20.20;;
35306;SDS011;21420;52.196;21.416;2023-01-09T07:27:25;29.80;;;21.20;;
35306;SDS011;21420;52.196;21.416;2023-01-09T07:29:52;26.40;;;19.50;;
35306;SDS011;21420;52.196;21.416;2023-01-09T07:32:19;29.40;;;20.40;;
35306;SDS011;21420;52.196;21.416;2023-01-09T07:34:46;29.70;;;21.20;;
35306;SDS011;21420;52.196;21.416;2023-01-09T07:37:14;27.00;;;19.70;;
35306;SDS011;21420;52.196;21.416;2023-01-09T07:39:42;27.70;;;21.50;;
35306;SDS011;21420;52.196;21.416;2023-01-09T07:42:09;26.80;;;20.00;;
35306;SDS011;21420;52.196;21.416;2023-01-09T07:44:37;25.70;;;18.60;;
35306;SDS011;21420;52.196;21.416;2023-01-09T07:47:04;25.10;;;19.30;;
35306;SDS011;21420;52.196;21.416;2023-01-09T07:49:31;29.80;;;19.90;;
35306;SDS011;21420;52.196;21.416;2023-01-09T07:51:58;28.20;;;19.80;;
35306;SDS011;21420;52.196;21.416;2023-01-09T07:54:25;27.20;;;18.70;;
35306;SDS011;21420;52.196;21.416;2023-01-09T07:56:52;28.50;;;20.40;;
35306;SDS011;21420;52.196;21.416;2023-01-09T07:59:19;33.30;;;22.70;;
35306;SDS011;21420;52.196;21.416;2023-01-09T08:01:46;26.90;;;20.40;;
35306;SDS011;21420;52.196;21.416;2023-01-09T08:04:13;26.90;;;19.80;;
35306;SDS011;21420;52.196;21.416;2023-01-09T08:06:40;26.40;;;19.70;;
35306;SDS011;21420;52.196;21.416;2023-01-09T08:09:07;32.90;;;21.50;;
35306;SDS011;21420;52.196;21.416;2023-01-09T08:11:34;31.80;;;20.90;;
35306;SDS011;21420;52.196;21.416;2023-01-09T08:14:01;29.00;;;20.60;;
35306;SDS011;21420;52.196;21.416;2023-01-09T08:16:29;29.20;;;20.80;;
35306;SDS011;21420;52.196;21.416;2023-01-09T08:18:56;25.50;;;20.30;;
35306;SDS011;21420;52.196;21.416;2023-01-09T08:21:23;24.50;;;18.40;;
35306;SDS011;21420;52.196;21.416;2023-01-09T08:23:50;24.70;;;18.10;;
35306;SDS011;21420;52.196;21.416;2023-01-09T08:26:17;22.40;;;17.50;;
35306;SDS011;21420;52.196;21.416;2023-01-09T08:28:45;24.20;;;18.40;;
35306;SDS011;21420;52.196;21.416;2023-01-09T08:31:12;25.40;;;20.00;;
35306;SDS011;21420;52.196;21.416;2023-01-09T08:33:40;24.30;;;18.20;;
35306;SDS011;21420;52.196;21.416;2023-01-09T08:36:08;24.70;;;17.90;;
35306;SDS011;21420;52.196;21.416;2023-01-09T08:38:35;26.80;;;19.60;;
35306;SDS011;21420;52.196;21.416;2023-01-09T08:41:03;26.10;;;19.30;;
35306;SDS011;21420;52.196;21.416;2023-01-09T08:43:50;28.20;;;20.90;;
35306;SDS011;21420;52.196;21.416;2023-01-09T08:46:36;27.70;;;19.30;;
35306;SDS011;21420;52.196;21.416;2023-01-09T08:49:22;21.20;;;18.30;;
35306;SDS011;21420;52.196;21.416;2023-01-09T08:51:49;22.60;;;17.40;;
35306;SDS011;21420;52.196;21.416;2023-01-09T08:54:16;20.60;;;17.10;;
35306;SDS011;21420;52.196;21.416;2023-01-09T08:56:43;21.20;;;16.80;;
35306;SDS011;21420;52.196;21.416;2023-01-09T08:59:12;22.60;;;17.90;;
35306;SDS011;21420;52.196;21.416;2023-01-09T09:01:39;22.00;;;18.20;;
35306;SDS011;21420;52.196;21.416;2023-01-09T09:04:06;22.70;;;18.20;;
35306;SDS011;21420;52.196;21.416;2023-01-09T09:06:33;26.20;;;17.10;;
35306;SDS011;21420;52.196;21.416;2023-01-09T09:09:03;23.90;;;18.50;;
35306;SDS011;21420;52.196;21.416;2023-01-09T09:11:32;24.90;;;19.10;;
35306;SDS011;21420;52.196;21.416;2023-01-09T09:14:02;20.50;;;17.70;;
35306;SDS011;21420;52.196;21.416;2023-01-09T09:16:51;26.50;;;19.30;;
35306;SDS011;21420;52.196;21.416;2023-01-09T09:19:18;22.60;;;18.10;;
35306;SDS011;21420;52.196;21.416;2023-01-09T09:21:45;23.00;;;18.80;;
35306;SDS011;21420;52.196;21.416;2023-01-09T09:24:13;26.40;;;19.10;;
35306;SDS011;21420;52.196;21.416;2023-01-09T09:26:40;25.50;;;19.40;;
35306;SDS011;21420;52.196;21.416;2023-01-09T09:29:09;25.80;;;18.90;;
35306;SDS011;21420;52.196;21.416;2023-01-09T09:31:37;26.40;;;20.70;;
35306;SDS011;21420;52.196;21.416;2023-01-09T09:34:05;21.20;;;18.40;;
35306;SDS011;21420;52.196;21.416;2023-01-09T09:36:33;24.40;;;18.90;;
35306;SDS011;21420;52.196;21.416;2023-01-09T09:39:00;23.60;;;18.30;;
35306;SDS011;21420;52.196;21.416;2023-01-09T09:41:45;25.40;;;18.70;;
35306;SDS011;21420;52.196;21.416;2023-01-09T09:55:34;24.10;;;19.00;;
35306;SDS011;21420;52.196;21.416;2023-01-09T10:00:36;26.70;;;19.70;;
35306;SDS011;21420;52.196;21.416;2023-01-09T10:03:05;25.50;;;18.80;;
35306;SDS011;21420;52.196;21.416;2023-01-09T10:05:41;24.10;;;18.50;;
35306;SDS011;21420;52.196;21.416;2023-01-09T10:08:18;27.10;;;19.70;;
35306;SDS011;21420;52.196;21.416;2023-01-09T10:10:51;27.40;;;21.00;;
35306;SDS011;21420;52.196;21.416;2023-01-09T10:27:31;26.80;;;20.40;;
35306;SDS011;21420;52.196;21.416;2023-01-09T10:32:43;27.50;;;20.70;;
35306;SDS011;21420;52.196;21.416;2023-01-09T10:38:15;24.60;;;19.40;;
35306;SDS011;21420;52.196;21.416;2023-01-09T10:40:57;24.60;;;19.70;;
35306;SDS011;21420;52.196;21.416;2023-01-09T10:43:38;26.90;;;20.70;;
35306;SDS011;21420;52.196;21.416;2023-01-09T10:46:21;27.90;;;20.50;;
35306;SDS011;21420;52.196;21.416;2023-01-09T10:48:59;25.60;;;20.40;;
35306;SDS011;21420;52.196;21.416;2023-01-09T10:54:15;23.90;;;19.50;;
35306;SDS011;21420;52.196;21.416;2023-01-09T10:56:54;30.40;;;20.50;;
35306;SDS011;21420;52.196;21.416;2023-01-09T10:59:51;26.20;;;20.60;;
35306;SDS011;21420;52.196;21.416;2023-01-09T11:02:26;31.30;;;23.30;;
35306;SDS011;21420;52.196;21.416;2023-01-09T11:04:56;32.70;;;24.50;;
35306;SDS011;21420;52.196;21.416;2023-01-09T11:07:25;34.10;;;23.50;;
35306;SDS011;21420;52.196;21.416;2023-01-09T11:09:57;29.10;;;22.90;;
35306;SDS011;21420;52.196;21.416;2023-01-09T11:12:35;29.10;;;22.10;;
35306;SDS011;21420;52.196;21.416;2023-01-09T11:17:42;34.30;;;23.10;;
35306;SDS011;21420;52.196;21.416;2023-01-09T11:22:46;32.80;;;23.50;;
35306;SDS011;21420;52.196;21.416;2023-01-09T11:25:19;30.00;;;23.50;;
35306;SDS011;21420;52.196;21.416;2023-01-09T11:28:02;26.80;;;22.10;;
35306;SDS011;21420;52.196;21.416;2023-01-09T11:30:34;27.90;;;21.30;;
35306;SDS011;21420;52.196;21.416;2023-01-09T11:33:19;27.60;;;22.00;;
35306;SDS011;21420;52.196;21.416;2023-01-09T11:35:59;31.50;;;23.70;;
35306;SDS011;21420;52.196;21.416;2023-01-09T11:38:49;26.40;;;22.10;;
35306;SDS011;21420;52.196;21.416;2023-01-09T11:41:20;27.20;;;21.80;;
35306;SDS011;21420;52.196;21.416;2023-01-09T11:43:49;27.20;;;22.10;;
35306;SDS011;21420;52.196;21.416;2023-01-09T11:49:22;28.80;;;22.10;;
35306;SDS011;21420;52.196;21.416;2023-01-09T11:57:20;33.20;;;25.10;;
35306;SDS011;21420;52.196;21.416;2023-01-09T12:10:22;28.80;;;23.90;;
35306;SDS011;21420;52.196;21.416;2023-01-09T12:23:52;32.90;;;26.40;;
35306;SDS011;21420;52.196;21.416;2023-01-09T12:48:38;52.20;;;36.50;;
35306;SDS011;21420;52.196;21.416;2023-01-09T12:53:48;49.20;;;40.50;;
35306;SDS011;21420;52.196;21.416;2023-01-09T12:56:19;47.00;;;37.60;;
35306;SDS011;21420;52.196;21.416;2023-01-09T12:58:56;54.40;;;44.40;;
35306;SDS011;21420;52.196;21.416;2023-01-09T13:01:28;42.10;;;32.90;;
35306;SDS011;21420;52.196;21.416;2023-01-09T13:07:01;59.20;;;44.50;;
35306;SDS011;21420;52.196;21.416;2023-01-09T13:09:48;55.60;;;39.50;;
35306;SDS011;21420;52.196;21.416;2023-01-09T13:12:21;56.20;;;38.50;;
35306;SDS011;21420;52.196;21.416;2023-01-09T13:14:55;58.10;;;36.80;;
35306;SDS011;21420;52.196;21.416;2023-01-09T13:17:37;45.30;;;33.50;;
35306;SDS011;21420;52.196;21.416;2023-01-09T13:20:16;41.70;;;29.40;;
35306;SDS011;21420;52.196;21.416;2023-01-09T13:22:48;45.20;;;31.10;;
35306;SDS011;21420;52.196;21.416;2023-01-09T13:25:26;47.90;;;34.60;;
35306;SDS011;21420;52.196;21.416;2023-01-09T13:28:20;39.10;;;30.20;;
35306;SDS011;21420;52.196;21.416;2023-01-09T13:33:35;48.40;;;31.80;;
35306;SDS011;21420;52.196;21.416;2023-01-09T13:36:05;46.80;;;31.90;;
35306;SDS011;21420;52.196;21.416;2023-01-09T13:38:32;41.30;;;31.10;;
35306;SDS011;21420;52.196;21.416;2023-01-09T13:41:10;35.90;;;28.70;;
35306;SDS011;21420;52.196;21.416;2023-01-09T13:44:03;40.20;;;30.20;;
35306;SDS011;21420;52.196;21.416;2023-01-09T13:46:34;36.50;;;28.80;;
35306;SDS011;21420;52.196;21.416;2023-01-09T13:49:04;40.00;;;30.50;;
35306;SDS011;21420;52.196;21.416;2023-01-09T13:51:35;41.00;;;31.10;;
35306;SDS011;21420;52.196;21.416;2023-01-09T13:54:02;40.10;;;31.80;;
35306;SDS011;21420;52.196;21.416;2023-01-09T13:56:30;35.60;;;29.30;;
35306;SDS011;21420;52.196;21.416;2023-01-09T13:58:58;43.40;;;33.70;;
35306;SDS011;21420;52.196;21.416;2023-01-09T14:06:40;38.30;;;27.70;;
35306;SDS011;21420;52.196;21.416;2023-01-09T14:11:40;41.10;;;30.00;;
35306;SDS011;21420;52.196;21.416;2023-01-09T14:14:23;38.00;;;28.10;;
35306;SDS011;21420;52.196;21.416;2023-01-09T14:16:55;41.90;;;33.20;;
35306;SDS011;21420;52.196;21.416;2023-01-09T14:19:28;36.30;;;27.70;;
35306;SDS011;21420;52.196;21.416;2023-01-09T14:22:00;36.70;;;27.70;;
35306;SDS011;21420;52.196;21.416;2023-01-09T14:26:58;35.30;;;29.70;;
35306;SDS011;21420;52.196;21.416;2023-01-09T14:34:54;32.70;;;26.10;;
35306;SDS011;21420;52.196;21.416;2023-01-09T14:37:44;37.20;;;28.70;;
35306;SDS011;21420;52.196;21.416;2023-01-09T14:40:18;32.40;;;26.20;;
35306;SDS011;21420;52.196;21.416;2023-01-09T14:42:52;33.60;;;27.70;;
35306;SDS011;21420;52.196;21.416;2023-01-09T14:45:24;41.90;;;31.00;;
35306;SDS011;21420;52.196;21.416;2023-01-09T14:47:57;36.20;;;28.00;;
35306;SDS011;21420;52.196;21.416;2023-01-09T14:55:56;39.90;;;28.50;;
35306;SDS011;21420;52.196;21.416;2023-01-09T14:58:28;34.70;;;26.20;;
35306;SDS011;21420;52.196;21.416;2023-01-09T15:01:05;32.00;;;27.30;;
35306;SDS011;21420;52.196;21.416;2023-01-09T15:03:45;34.30;;;26.30;;
35306;SDS011;21420;52.196;21.416;2023-01-09T15:06:17;32.70;;;25.30;;
35306;SDS011;21420;52.196;21.416;2023-01-09T15:11:19;33.40;;;25.10;;
35306;SDS011;21420;52.196;21.416;2023-01-09T15:13:47;30.90;;;25.60;;
35306;SDS011;21420;52.196;21.416;2023-01-09T15:18:48;28.10;;;24.80;;
35306;SDS011;21420;52.196;21.416;2023-01-09T15:21:24;33.70;;;27.00;;
35306;SDS011;21420;52.196;21.416;2023-01-09T15:23:53;35.80;;;27.90;;
35306;SDS011;21420;52.196;21.416;2023-01-09T15:26:24;33.90;;;27.40;;
35306;SDS011;21420;52.196;21.416;2023-01-09T15:29:08;34.20;;;28.00;;
35306;SDS011;21420;52.196;21.416;2023-01-09T15:31:42;36.00;;;29.60;;
35306;SDS011;21420;52.196;21.416;2023-01-09T15:34:15;38.40;;;30.20;;
35306;SDS011;21420;52.196;21.416;2023-01-09T15:36:45;38.00;;;29.30;;
35306;SDS011;21420;52.196;21.416;2023-01-09T15:39:22;30.60;;;25.40;;
35306;SDS011;21420;52.196;21.416;2023-01-09T15:41:52;31.90;;;23.90;;
35306;SDS011;21420;52.196;21.416;2023-01-09T15:44:40;27.00;;;22.70;;
35306;SDS011;21420;52.196;21.416;2023-01-09T15:47:13;30.10;;;24.40;;
35306;SDS011;21420;52.196;21.416;2023-01-09T15:49:47;29.50;;;24.60;;
35306;SDS011;21420;52.196;21.416;2023-01-09T15:52:16;30.60;;;23.40;;
35306;SDS011;21420;52.196;21.416;2023-01-09T15:54:49;32.70;;;23.10;;
35306;SDS011;21420;52.196;21.416;2023-01-09T15:59:50;31.70;;;25.50;;
35306;SDS011;21420;52.196;21.416;2023-01-09T16:02:17;32.80;;;24.30;;
35306;SDS011;21420;52.196;21.416;2023-01-09T16:05:11;29.20;;;24.00;;
35306;SDS011;21420;52.196;21.416;2023-01-09T16:07:43;29.80;;;23.90;;
35306;SDS011;21420;52.196;21.416;2023-01-09T16:13:00;27.40;;;21.80;;
35306;SDS011;21420;52.196;21.416;2023-01-09T16:15:29;29.90;;;22.20;;
35306;SDS011;21420;52.196;21.416;2023-01-09T16:18:48;28.50;;;21.90;;
35306;SDS011;21420;52.196;21.416;2023-01-09T16:21:05;30.00;;;21.10;;
35306;SDS011;21420;52.196;21.416;2023-01-09T16:23:38;29.80;;;21.20;;
35306;SDS011;21420;52.196;21.416;2023-01-09T16:26:19;24.30;;;19.80;;
35306;SDS011;21420;52.196;21.416;2023-01-09T16:28:49;25.40;;;19.70;;
35306;SDS011;21420;52.196;21.416;2023-01-09T16:31:29;23.30;;;19.30;;
35306;SDS011;21420;52.196;21.416;2023-01-09T16:34:02;24.80;;;20.10;;
35306;SDS011;21420;52.196;21.416;2023-01-09T16:36:35;25.30;;;20.50;;
35306;SDS011;21420;52.196;21.416;2023-01-09T16:39:03;26.90;;;22.20;;
35306;SDS011;21420;52.196;21.416;2023-01-09T16:41:30;26.50;;;21.00;;
35306;SDS011;21420;52.196;21.416;2023-01-09T16:44:16;27.80;;;21.30;;
35306;SDS011;21420;52.196;21.416;2023-01-09T16:46:44;25.40;;;20.20;;
35306;SDS011;21420;52.196;21.416;2023-01-09T16:49:19;22.80;;;19.20;;
35306;SDS011;21420;52.196;21.416;2023-01-09T16:51:49;23.00;;;19.10;;
35306;SDS011;21420;52.196;21.416;2023-01-09T16:54:17;23.60;;;20.50;;
35306;SDS011;21420;52.196;21.416;2023-01-09T16:56:49;23.20;;;19.10;;
35306;SDS011;21420;52.196;21.416;2023-01-09T16:59:20;25.90;;;19.40;;
35306;SDS011;21420;52.196;21.416;2023-01-09T17:01:53;27.10;;;20.70;;
35306;SDS011;21420;52.196;21.416;2023-01-09T17:04:20;26.10;;;19.80;;
35306;SDS011;21420;52.196;21.416;2023-01-09T17:06:52;22.80;;;19.60;;
35306;SDS011;21420;52.196;21.416;2023-01-09T17:09:19;26.90;;;20.30;;
35306;SDS011;21420;52.196;21.416;2023-01-09T17:11:51;21.80;;;18.80;;
35306;SDS011;21420;52.196;21.416;2023-01-09T17:14:18;22.70;;;18.80;;